sensor_id;sensor_type;location;lat;lon;timestamp;P1;durP1;ratioP1;P2;durP2;ratioP2
7324;SDS011;3703;48.016;7.802;2023-01-28T00:01:11;13.93;;;8.50;;
7324;SDS011;3703;48.016;7.802;2023-01-28T00:04:00;12.97;;;7.80;;
7324;SDS011;3703;48.016;7.802;2023-01-28T00:06:48;15.00;;;7.33;;
7324;SDS011;3703;48.016;7.802;2023-01-28T00:09:36;13.03;;;7.23;;
7324;SDS011;3703;48.016;7.802;2023-01-28T00:12:24;13.27;;;7.70;;
7324;SDS011;3703;48.016;7.802;2023-01-28T00:15:15;17.27;;;10.13;;
7324;SDS011;3703;48.016;7.802;2023-01-28T00:18:03;20.33;;;10.63;;
7324;SDS011;3703;48.016;7.802;2023-01-28T00:20:57;15.27;;;8.80;;
7324;SDS011;3703;48.016;7.802;2023-01-28T00:23:46;14.77;;;8.43;;
7324;SDS011;3703;48.016;7.802;2023-01-28T00:26:39;14.30;;;8.07;;
7324;SDS011;3703;48.016;7.802;2023-01-28T00:29:28;12.37;;;7.73;;
7324;SDS011;3703;48.016;7.802;2023-01-28T00:32:17;11.00;;;7.53;;
7324;SDS011;3703;48.016;7.802;2023-01-28T00:35:05;13.63;;;7.27;;
7324;SDS011;3703;48.016;7.802;2023-01-28T00:37:53;13.97;;;7.37;;
7324;SDS011;3703;48.016;7.802;2023-01-28T00:40:41;14.23;;;8.00;;
7324;SDS011;3703;48.016;7.802;2023-01-28T00:43:29;14.37;;;7.83;;
7324;SDS011;3703;48.016;7.802;2023-01-28T00:46:17;11.33;;;7.37;;
7324;SDS011;3703;48.016;7.802;2023-01-28T00:49:07;12.10;;;6.90;;
7324;SDS011;3703;48.016;7.802;2023-01-28T00:51:54;15.00;;;7.87;;
7324;SDS011;3703;48.016;7.802;2023-01-28T00:54:42;10.43;;;7.03;;
7324;SDS011;3703;48.016;7.802;2023-01-28T00:57:30;12.93;;;8.07;;
7324;SDS011;3703;48.016;7.802;2023-01-28T01:00:18;12.80;;;7.87;;
7324;SDS011;3703;48.016;7.802;2023-01-28T01:03:11;13.73;;;8.23;;
7324;SDS011;3703;48.016;7.802;2023-01-28T01:06:00;12.90;;;8.40;;
7324;SDS011;3703;48.016;7.802;2023-01-28T01:08:48;15.47;;;8.50;;
7324;SDS011;3703;48.016;7.802;2023-01-28T01:11:37;13.73;;;8.30;;
7324;SDS011;3703;48.016;7.802;2023-01-28T01:14:25;13.03;;;8.57;;
7324;SDS011;3703;48.016;7.802;2023-01-28T01:17:12;11.63;;;8.23;;
7324;SDS011;3703;48.016;7.802;2023-01-28T01:20:00;12.43;;;8.40;;
7324;SDS011;3703;48.016;7.802;2023-01-28T01:22:49;12.97;;;7.83;;
7324;SDS011;3703;48.016;7.802;2023-01-28T01:25:38;14.97;;;8.57;;
7324;SDS011;3703;48.016;7.802;2023-01-28T01:28:26;13.43;;;7.73;;
7324;SDS011;3703;48.016;7.802;2023-01-28T01:31:16;10.27;;;7.07;;
7324;SDS011;3703;48.016;7.802;2023-01-28T01:34:05;12.03;;;7.80;;
7324;SDS011;3703;48.016;7.802;2023-01-28T01:36:54;15.90;;;8.90;;
7324;SDS011;3703;48.016;7.802;2023-01-28T01:39:43;12.33;;;7.70;;
7324;SDS011;3703;48.016;7.802;2023-01-28T01:42:32;13.70;;;8.53;;
7324;SDS011;3703;48.016;7.802;2023-01-28T01:45:20;12.70;;;7.60;;
7324;SDS011;3703;48.016;7.802;2023-01-28T01:48:09;13.60;;;8.57;;
7324;SDS011;3703;48.016;7.802;2023-01-28T01:51:02;12.97;;;7.70;;
7324;SDS011;3703;48.016;7.802;2023-01-28T01:53:54;11.47;;;7.77;;
7324;SDS011;3703;48.016;7.802;2023-01-28T01:56:45;10.57;;;7.60;;
7324;SDS011;3703;48.016;7.802;2023-01-28T01:59:35;12.70;;;6.73;;
7324;SDS011;3703;48.016;7.802;2023-01-28T02:02:23;11.37;;;6.90;;
7324;SDS011;3703;48.016;7.802;2023-01-28T02:05:12;11.33;;;7.57;;
7324;SDS011;3703;48.016;7.802;2023-01-28T02:08:05;12.13;;;7.90;;
7324;SDS011;3703;48.016;7.802;2023-01-28T02:11:07;10.50;;;7.43;;
7324;SDS011;3703;48.016;7.802;2023-01-28T02:13:57;9.57;;;6.70;;
7324;SDS011;3703;48.016;7.802;2023-01-28T02:16:49;12.30;;;7.07;;
7324;SDS011;3703;48.016;7.802;2023-01-28T02:19:37;9.83;;;6.10;;
7324;SDS011;3703;48.016;7.802;2023-01-28T02:22:46;11.10;;;6.70;;
7324;SDS011;3703;48.016;7.802;2023-01-28T02:26:25;10.57;;;6.77;;
7324;SDS011;3703;48.016;7.802;2023-01-28T02:29:42;10.20;;;6.93;;
7324;SDS011;3703;48.016;7.802;2023-01-28T02:32:37;9.77;;;6.33;;
7324;SDS011;3703;48.016;7.802;2023-01-28T02:35:30;10.00;;;6.23;;
7324;SDS011;3703;48.016;7.802;2023-01-28T02:38:26;10.07;;;6.00;;
7324;SDS011;3703;48.016;7.802;2023-01-28T02:41:20;8.90;;;5.87;;
7324;SDS011;3703;48.016;7.802;2023-01-28T02:44:11;9.63;;;6.37;;
7324;SDS011;3703;48.016;7.802;2023-01-28T02:47:01;8.20;;;6.67;;
7324;SDS011;3703;48.016;7.802;2023-01-28T02:50:06;11.13;;;6.40;;
7324;SDS011;3703;48.016;7.802;2023-01-28T02:53:00;9.87;;;5.73;;
7324;SDS011;3703;48.016;7.802;2023-01-28T02:56:18;9.40;;;5.87;;
7324;SDS011;3703;48.016;7.802;2023-01-28T02:59:16;7.57;;;5.60;;
7324;SDS011;3703;48.016;7.802;2023-01-28T03:02:22;10.30;;;5.87;;
7324;SDS011;3703;48.016;7.802;2023-01-28T03:05:16;9.50;;;6.03;;
7324;SDS011;3703;48.016;7.802;2023-01-28T03:08:08;9.23;;;5.57;;
7324;SDS011;3703;48.016;7.802;2023-01-28T03:11:10;8.50;;;5.53;;
7324;SDS011;3703;48.016;7.802;2023-01-28T03:14:16;9.63;;;5.70;;
7324;SDS011;3703;48.016;7.802;2023-01-28T03:17:24;9.17;;;5.43;;
7324;SDS011;3703;48.016;7.802;2023-01-28T03:20:37;11.00;;;5.83;;
7324;SDS011;3703;48.016;7.802;2023-01-28T03:23:51;9.97;;;6.43;;
7324;SDS011;3703;48.016;7.802;2023-01-28T03:27:02;11.20;;;6.60;;
7324;SDS011;3703;48.016;7.802;2023-01-28T03:30:16;8.97;;;6.03;;
7324;SDS011;3703;48.016;7.802;2023-01-28T03:33:29;10.70;;;5.60;;
7324;SDS011;3703;48.016;7.802;2023-01-28T03:36:35;12.20;;;6.20;;
7324;SDS011;3703;48.016;7.802;2023-01-28T03:39:39;9.37;;;5.90;;
7324;SDS011;3703;48.016;7.802;2023-01-28T03:42:27;11.27;;;7.20;;
7324;SDS011;3703;48.016;7.802;2023-01-28T03:45:15;10.60;;;6.60;;
7324;SDS011;3703;48.016;7.802;2023-01-28T03:48:02;9.77;;;6.87;;
7324;SDS011;3703;48.016;7.802;2023-01-28T03:50:52;10.90;;;6.77;;
7324;SDS011;3703;48.016;7.802;2023-01-28T03:53:41;9.90;;;5.83;;
7324;SDS011;3703;48.016;7.802;2023-01-28T03:56:29;10.50;;;6.23;;
7324;SDS011;3703;48.016;7.802;2023-01-28T03:59:21;10.27;;;6.70;;
7324;SDS011;3703;48.016;7.802;2023-01-28T04:02:10;9.27;;;6.43;;
7324;SDS011;3703;48.016;7.802;2023-01-28T04:04:59;11.23;;;6.87;;
7324;SDS011;3703;48.016;7.802;2023-01-28T04:07:54;10.73;;;6.77;;
7324;SDS011;3703;48.016;7.802;2023-01-28T04:10:42;10.17;;;7.00;;
7324;SDS011;3703;48.016;7.802;2023-01-28T04:13:30;11.27;;;6.73;;
7324;SDS011;3703;48.016;7.802;2023-01-28T04:16:18;10.10;;;6.00;;
7324;SDS011;3703;48.016;7.802;2023-01-28T04:19:05;9.90;;;5.73;;
7324;SDS011;3703;48.016;7.802;2023-01-28T04:21:53;9.90;;;6.43;;
7324;SDS011;3703;48.016;7.802;2023-01-28T04:24:43;10.13;;;5.60;;
7324;SDS011;3703;48.016;7.802;2023-01-28T04:27:31;8.60;;;5.77;;
7324;SDS011;3703;48.016;7.802;2023-01-28T04:30:19;9.03;;;6.67;;
7324;SDS011;3703;48.016;7.802;2023-01-28T04:33:07;10.17;;;5.70;;
7324;SDS011;3703;48.016;7.802;2023-01-28T04:35:55;10.37;;;6.40;;
7324;SDS011;3703;48.016;7.802;2023-01-28T04:38:42;10.00;;;5.83;;
7324;SDS011;3703;48.016;7.802;2023-01-28T04:41:32;9.47;;;5.63;;
7324;SDS011;3703;48.016;7.802;2023-01-28T04:44:19;9.93;;;6.60;;
7324;SDS011;3703;48.016;7.802;2023-01-28T04:47:07;9.63;;;5.97;;
7324;SDS011;3703;48.016;7.802;2023-01-28T04:49:54;8.20;;;5.47;;
7324;SDS011;3703;48.016;7.802;2023-01-28T04:52:42;10.20;;;6.20;;
7324;SDS011;3703;48.016;7.802;2023-01-28T04:55:29;10.30;;;6.40;;
7324;SDS011;3703;48.016;7.802;2023-01-28T04:58:19;8.23;;;5.83;;
7324;SDS011;3703;48.016;7.802;2023-01-28T05:01:06;8.83;;;5.63;;
7324;SDS011;3703;48.016;7.802;2023-01-28T05:03:54;9.97;;;6.20;;
7324;SDS011;3703;48.016;7.802;2023-01-28T05:06:42;7.60;;;5.43;;
7324;SDS011;3703;48.016;7.802;2023-01-28T05:09:29;10.03;;;6.23;;
7324;SDS011;3703;48.016;7.802;2023-01-28T05:12:17;10.93;;;6.73;;
7324;SDS011;3703;48.016;7.802;2023-01-28T05:15:08;9.73;;;6.03;;
7324;SDS011;3703;48.016;7.802;2023-01-28T05:17:55;8.63;;;5.30;;
7324;SDS011;3703;48.016;7.802;2023-01-28T05:20:44;9.20;;;5.80;;
7324;SDS011;3703;48.016;7.802;2023-01-28T05:23:33;10.23;;;5.77;;
7324;SDS011;3703;48.016;7.802;2023-01-28T05:26:21;7.70;;;5.27;;
7324;SDS011;3703;48.016;7.802;2023-01-28T05:29:08;9.50;;;5.60;;
7324;SDS011;3703;48.016;7.802;2023-01-28T05:31:57;9.73;;;6.00;;
7324;SDS011;3703;48.016;7.802;2023-01-28T05:34:45;8.87;;;5.87;;
7324;SDS011;3703;48.016;7.802;2023-01-28T05:37:32;9.13;;;5.77;;
7324;SDS011;3703;48.016;7.802;2023-01-28T05:40:21;8.87;;;5.43;;
7324;SDS011;3703;48.016;7.802;2023-01-28T05:43:08;9.07;;;5.40;;
7324;SDS011;3703;48.016;7.802;2023-01-28T05:45:56;8.63;;;5.37;;
7324;SDS011;3703;48.016;7.802;2023-01-28T05:48:45;8.40;;;5.63;;
7324;SDS011;3703;48.016;7.802;2023-01-28T05:51:32;10.20;;;5.87;;
7324;SDS011;3703;48.016;7.802;2023-01-28T05:54:20;9.57;;;5.70;;
7324;SDS011;3703;48.016;7.802;2023-01-28T05:57:07;8.63;;;5.83;;
7324;SDS011;3703;48.016;7.802;2023-01-28T05:59:55;8.10;;;5.37;;
7324;SDS011;3703;48.016;7.802;2023-01-28T06:02:43;9.57;;;5.40;;
7324;SDS011;3703;48.016;7.802;2023-01-28T06:05:32;10.70;;;6.37;;
7324;SDS011;3703;48.016;7.802;2023-01-28T06:08:20;6.77;;;4.83;;
7324;SDS011;3703;48.016;7.802;2023-01-28T06:11:08;8.27;;;5.70;;
7324;SDS011;3703;48.016;7.802;2023-01-28T06:13:56;10.70;;;5.77;;
7324;SDS011;3703;48.016;7.802;2023-01-28T06:16:43;10.10;;;6.20;;
7324;SDS011;3703;48.016;7.802;2023-01-28T06:19:31;9.30;;;5.13;;
7324;SDS011;3703;48.016;7.802;2023-01-28T06:22:20;9.33;;;5.70;;
7324;SDS011;3703;48.016;7.802;2023-01-28T06:25:07;9.17;;;5.67;;
7324;SDS011;3703;48.016;7.802;2023-01-28T06:27:56;9.37;;;4.77;;
7324;SDS011;3703;48.016;7.802;2023-01-28T06:30:46;8.67;;;5.80;;
7324;SDS011;3703;48.016;7.802;2023-01-28T06:33:34;8.17;;;4.93;;
7324;SDS011;3703;48.016;7.802;2023-01-28T06:36:22;8.43;;;5.60;;
7324;SDS011;3703;48.016;7.802;2023-01-28T06:39:11;8.57;;;5.17;;
7324;SDS011;3703;48.016;7.802;2023-01-28T06:41:59;9.03;;;4.83;;
7324;SDS011;3703;48.016;7.802;2023-01-28T06:44:46;9.17;;;5.67;;
7324;SDS011;3703;48.016;7.802;2023-01-28T06:47:34;8.40;;;4.70;;
7324;SDS011;3703;48.016;7.802;2023-01-28T06:50:24;6.63;;;4.53;;
7324;SDS011;3703;48.016;7.802;2023-01-28T06:53:11;6.83;;;4.27;;
7324;SDS011;3703;48.016;7.802;2023-01-28T06:56:00;7.43;;;4.47;;
7324;SDS011;3703;48.016;7.802;2023-01-28T06:58:48;9.93;;;5.73;;
7324;SDS011;3703;48.016;7.802;2023-01-28T07:01:35;7.07;;;5.03;;
7324;SDS011;3703;48.016;7.802;2023-01-28T07:04:23;8.93;;;5.57;;
7324;SDS011;3703;48.016;7.802;2023-01-28T07:07:11;7.97;;;5.80;;
7324;SDS011;3703;48.016;7.802;2023-01-28T07:09:59;8.47;;;4.90;;
7324;SDS011;3703;48.016;7.802;2023-01-28T07:12:48;7.57;;;4.70;;
7324;SDS011;3703;48.016;7.802;2023-01-28T07:15:35;6.83;;;4.47;;
7324;SDS011;3703;48.016;7.802;2023-01-28T07:18:23;7.13;;;4.67;;
7324;SDS011;3703;48.016;7.802;2023-01-28T07:21:11;9.77;;;4.93;;
7324;SDS011;3703;48.016;7.802;2023-01-28T07:23:58;8.07;;;4.70;;
7324;SDS011;3703;48.016;7.802;2023-01-28T07:26:46;6.57;;;4.23;;
7324;SDS011;3703;48.016;7.802;2023-01-28T07:29:35;5.83;;;3.77;;
7324;SDS011;3703;48.016;7.802;2023-01-28T07:32:22;6.47;;;4.50;;
7324;SDS011;3703;48.016;7.802;2023-01-28T07:35:12;5.70;;;4.03;;
7324;SDS011;3703;48.016;7.802;2023-01-28T07:38:00;6.43;;;4.30;;
7324;SDS011;3703;48.016;7.802;2023-01-28T07:40:48;7.37;;;4.67;;
7324;SDS011;3703;48.016;7.802;2023-01-28T07:43:35;7.80;;;5.20;;
7324;SDS011;3703;48.016;7.802;2023-01-28T07:46:24;8.77;;;4.40;;
7324;SDS011;3703;48.016;7.802;2023-01-28T07:49:12;7.60;;;4.53;;
7324;SDS011;3703;48.016;7.802;2023-01-28T07:52:00;8.37;;;4.97;;
7324;SDS011;3703;48.016;7.802;2023-01-28T07:54:47;6.33;;;4.30;;
7324;SDS011;3703;48.016;7.802;2023-01-28T07:57:35;6.90;;;4.77;;
7324;SDS011;3703;48.016;7.802;2023-01-28T08:00:22;8.23;;;4.87;;
7324;SDS011;3703;48.016;7.802;2023-01-28T08:03:13;7.17;;;4.33;;
7324;SDS011;3703;48.016;7.802;2023-01-28T08:06:01;6.53;;;3.90;;
7324;SDS011;3703;48.016;7.802;2023-01-28T08:08:49;6.47;;;4.40;;
7324;SDS011;3703;48.016;7.802;2023-01-28T08:11:37;5.73;;;3.90;;
7324;SDS011;3703;48.016;7.802;2023-01-28T08:14:25;5.03;;;3.73;;
7324;SDS011;3703;48.016;7.802;2023-01-28T08:17:12;5.17;;;3.43;;
7324;SDS011;3703;48.016;7.802;2023-01-28T08:20:01;5.90;;;3.87;;
7324;SDS011;3703;48.016;7.802;2023-01-28T08:22:49;6.60;;;4.40;;
7324;SDS011;3703;48.016;7.802;2023-01-28T08:25:36;7.07;;;4.00;;
7324;SDS011;3703;48.016;7.802;2023-01-28T08:28:24;4.67;;;3.43;;
7324;SDS011;3703;48.016;7.802;2023-01-28T08:31:12;5.87;;;4.10;;
7324;SDS011;3703;48.016;7.802;2023-01-28T08:33:59;5.70;;;3.90;;
7324;SDS011;3703;48.016;7.802;2023-01-28T08:36:48;5.73;;;3.63;;
7324;SDS011;3703;48.016;7.802;2023-01-28T08:39:35;4.83;;;3.60;;
7324;SDS011;3703;48.016;7.802;2023-01-28T08:42:23;6.50;;;4.30;;
7324;SDS011;3703;48.016;7.802;2023-01-28T08:45:11;6.47;;;3.80;;
7324;SDS011;3703;48.016;7.802;2023-01-28T08:47:59;5.90;;;4.00;;
7324;SDS011;3703;48.016;7.802;2023-01-28T08:50:48;7.27;;;3.70;;
7324;SDS011;3703;48.016;7.802;2023-01-28T08:53:37;7.73;;;3.77;;
7324;SDS011;3703;48.016;7.802;2023-01-28T08:56:25;4.40;;;3.37;;
7324;SDS011;3703;48.016;7.802;2023-01-28T08:59:13;5.60;;;3.43;;
7324;SDS011;3703;48.016;7.802;2023-01-28T09:02:00;5.33;;;3.40;;
7324;SDS011;3703;48.016;7.802;2023-01-28T09:04:48;6.27;;;3.83;;
7324;SDS011;3703;48.016;7.802;2023-01-28T09:07:36;6.23;;;3.67;;
7324;SDS011;3703;48.016;7.802;2023-01-28T09:10:25;4.33;;;3.07;;
7324;SDS011;3703;48.016;7.802;2023-01-28T09:13:13;4.53;;;3.00;;
7324;SDS011;3703;48.016;7.802;2023-01-28T09:16:03;5.73;;;4.30;;
7324;SDS011;3703;48.016;7.802;2023-01-28T09:18:51;9.10;;;4.63;;
7324;SDS011;3703;48.016;7.802;2023-01-28T09:21:39;6.13;;;3.43;;
7324;SDS011;3703;48.016;7.802;2023-01-28T09:24:27;4.87;;;3.27;;
7324;SDS011;3703;48.016;7.802;2023-01-28T09:27:15;6.03;;;3.63;;
7324;SDS011;3703;48.016;7.802;2023-01-28T09:30:04;6.00;;;4.00;;
7324;SDS011;3703;48.016;7.802;2023-01-28T09:32:53;6.10;;;4.10;;
7324;SDS011;3703;48.016;7.802;2023-01-28T09:35:42;5.77;;;3.57;;
7324;SDS011;3703;48.016;7.802;2023-01-28T09:38:31;5.60;;;3.80;;
7324;SDS011;3703;48.016;7.802;2023-01-28T09:41:25;6.90;;;4.07;;
7324;SDS011;3703;48.016;7.802;2023-01-28T09:44:21;6.47;;;4.63;;
7324;SDS011;3703;48.016;7.802;2023-01-28T09:47:23;6.13;;;3.80;;
7324;SDS011;3703;48.016;7.802;2023-01-28T09:50:15;5.90;;;3.37;;
7324;SDS011;3703;48.016;7.802;2023-01-28T09:53:09;6.53;;;3.70;;
7324;SDS011;3703;48.016;7.802;2023-01-28T09:56:03;5.80;;;3.87;;
7324;SDS011;3703;48.016;7.802;2023-01-28T09:58:57;4.63;;;3.10;;
7324;SDS011;3703;48.016;7.802;2023-01-28T10:02:14;6.60;;;3.33;;
7324;SDS011;3703;48.016;7.802;2023-01-28T10:05:25;4.37;;;2.83;;
7324;SDS011;3703;48.016;7.802;2023-01-28T10:08:24;5.37;;;3.40;;
7324;SDS011;3703;48.016;7.802;2023-01-28T10:11:31;6.37;;;3.53;;
7324;SDS011;3703;48.016;7.802;2023-01-28T10:14:36;5.67;;;3.13;;
7324;SDS011;3703;48.016;7.802;2023-01-28T10:17:38;3.50;;;3.00;;
7324;SDS011;3703;48.016;7.802;2023-01-28T10:20:30;4.23;;;3.00;;
7324;SDS011;3703;48.016;7.802;2023-01-28T10:23:23;4.27;;;3.13;;
7324;SDS011;3703;48.016;7.802;2023-01-28T10:26:20;5.10;;;4.57;;
7324;SDS011;3703;48.016;7.802;2023-01-28T10:29:11;3.87;;;2.97;;
7324;SDS011;3703;48.016;7.802;2023-01-28T10:32:03;3.30;;;3.00;;
7324;SDS011;3703;48.016;7.802;2023-01-28T10:35:04;2.80;;;2.53;;
7324;SDS011;3703;48.016;7.802;2023-01-28T10:37:52;4.00;;;3.17;;
7324;SDS011;3703;48.016;7.802;2023-01-28T10:40:46;4.27;;;3.10;;
7324;SDS011;3703;48.016;7.802;2023-01-28T10:43:36;3.87;;;2.80;;
7324;SDS011;3703;48.016;7.802;2023-01-28T10:46:27;6.53;;;3.97;;
7324;SDS011;3703;48.016;7.802;2023-01-28T10:49:20;4.43;;;3.33;;
7324;SDS011;3703;48.016;7.802;2023-01-28T10:52:14;3.33;;;2.73;;
7324;SDS011;3703;48.016;7.802;2023-01-28T10:55:03;2.70;;;2.40;;
7324;SDS011;3703;48.016;7.802;2023-01-28T10:57:52;3.57;;;3.07;;
7324;SDS011;3703;48.016;7.802;2023-01-28T11:00:40;3.70;;;3.10;;
7324;SDS011;3703;48.016;7.802;2023-01-28T11:03:28;3.27;;;2.83;;
7324;SDS011;3703;48.016;7.802;2023-01-28T11:06:22;4.13;;;3.30;;
7324;SDS011;3703;48.016;7.802;2023-01-28T11:09:20;6.13;;;3.53;;
7324;SDS011;3703;48.016;7.802;2023-01-28T11:12:11;3.37;;;2.90;;
7324;SDS011;3703;48.016;7.802;2023-01-28T11:15:04;3.43;;;2.70;;
7324;SDS011;3703;48.016;7.802;2023-01-28T11:18:03;5.00;;;3.30;;
7324;SDS011;3703;48.016;7.802;2023-01-28T11:20:55;4.10;;;3.10;;
7324;SDS011;3703;48.016;7.802;2023-01-28T11:23:48;3.77;;;2.90;;
7324;SDS011;3703;48.016;7.802;2023-01-28T11:26:43;3.80;;;3.33;;
7324;SDS011;3703;48.016;7.802;2023-01-28T11:29:33;3.43;;;2.90;;
7324;SDS011;3703;48.016;7.802;2023-01-28T11:32:26;3.50;;;2.93;;
7324;SDS011;3703;48.016;7.802;2023-01-28T11:35:22;3.60;;;2.93;;
7324;SDS011;3703;48.016;7.802;2023-01-28T11:38:16;3.67;;;3.27;;
7324;SDS011;3703;48.016;7.802;2023-01-28T11:41:12;4.57;;;3.13;;
7324;SDS011;3703;48.016;7.802;2023-01-28T11:44:09;4.00;;;3.10;;
7324;SDS011;3703;48.016;7.802;2023-01-28T11:47:15;4.00;;;3.53;;
7324;SDS011;3703;48.016;7.802;2023-01-28T11:50:23;4.00;;;3.17;;
7324;SDS011;3703;48.016;7.802;2023-01-28T11:53:26;5.57;;;3.60;;
7324;SDS011;3703;48.016;7.802;2023-01-28T11:56:35;4.00;;;3.60;;
7324;SDS011;3703;48.016;7.802;2023-01-28T11:59:47;4.57;;;2.93;;
7324;SDS011;3703;48.016;7.802;2023-01-28T12:02:49;4.57;;;3.50;;
7324;SDS011;3703;48.016;7.802;2023-01-28T12:05:48;4.07;;;3.37;;
7324;SDS011;3703;48.016;7.802;2023-01-28T12:08:39;5.53;;;3.30;;
7324;SDS011;3703;48.016;7.802;2023-01-28T12:11:38;4.53;;;3.67;;
7324;SDS011;3703;48.016;7.802;2023-01-28T12:15:00;4.30;;;3.37;;
7324;SDS011;3703;48.016;7.802;2023-01-28T12:18:10;4.63;;;3.50;;
7324;SDS011;3703;48.016;7.802;2023-01-28T12:21:13;4.43;;;3.03;;
7324;SDS011;3703;48.016;7.802;2023-01-28T12:24:18;4.47;;;3.60;;
7324;SDS011;3703;48.016;7.802;2023-01-28T12:27:24;6.50;;;3.37;;
7324;SDS011;3703;48.016;7.802;2023-01-28T12:30:34;3.83;;;3.33;;
7324;SDS011;3703;48.016;7.802;2023-01-28T12:36:48;4.77;;;3.20;;
7324;SDS011;3703;48.016;7.802;2023-01-28T12:39:46;3.80;;;3.27;;
7324;SDS011;3703;48.016;7.802;2023-01-28T12:42:47;4.93;;;4.07;;
7324;SDS011;3703;48.016;7.802;2023-01-28T12:45:42;5.73;;;4.07;;
7324;SDS011;3703;48.016;7.802;2023-01-28T12:48:35;5.30;;;4.17;;
7324;SDS011;3703;48.016;7.802;2023-01-28T12:51:27;4.90;;;3.53;;
7324;SDS011;3703;48.016;7.802;2023-01-28T12:54:23;4.93;;;3.53;;
7324;SDS011;3703;48.016;7.802;2023-01-28T12:57:15;4.27;;;3.40;;
7324;SDS011;3703;48.016;7.802;2023-01-28T13:00:14;4.93;;;3.37;;
7324;SDS011;3703;48.016;7.802;2023-01-28T13:03:18;4.50;;;3.37;;
7324;SDS011;3703;48.016;7.802;2023-01-28T13:06:15;4.80;;;3.40;;
7324;SDS011;3703;48.016;7.802;2023-01-28T13:09:11;6.37;;;3.40;;
7324;SDS011;3703;48.016;7.802;2023-01-28T13:12:04;4.97;;;3.30;;
7324;SDS011;3703;48.016;7.802;2023-01-28T13:14:52;7.03;;;4.10;;
7324;SDS011;3703;48.016;7.802;2023-01-28T13:17:52;5.53;;;3.70;;
7324;SDS011;3703;48.016;7.802;2023-01-28T13:20:47;4.73;;;4.13;;
7324;SDS011;3703;48.016;7.802;2023-01-28T13:23:38;6.47;;;4.43;;
7324;SDS011;3703;48.016;7.802;2023-01-28T13:26:29;7.33;;;4.90;;
7324;SDS011;3703;48.016;7.802;2023-01-28T13:29:29;7.07;;;3.70;;
7324;SDS011;3703;48.016;7.802;2023-01-28T13:32:29;5.20;;;3.77;;
7324;SDS011;3703;48.016;7.802;2023-01-28T13:35:26;6.63;;;3.90;;
7324;SDS011;3703;48.016;7.802;2023-01-28T13:38:19;7.57;;;3.73;;
7324;SDS011;3703;48.016;7.802;2023-01-28T13:41:07;6.33;;;3.77;;
7324;SDS011;3703;48.016;7.802;2023-01-28T13:43:55;5.80;;;3.53;;
7324;SDS011;3703;48.016;7.802;2023-01-28T13:46:43;5.90;;;3.97;;
7324;SDS011;3703;48.016;7.802;2023-01-28T13:49:31;6.50;;;4.73;;
7324;SDS011;3703;48.016;7.802;2023-01-28T13:52:27;5.47;;;3.53;;
7324;SDS011;3703;48.016;7.802;2023-01-28T13:55:20;5.37;;;4.17;;
7324;SDS011;3703;48.016;7.802;2023-01-28T13:58:24;5.93;;;3.50;;
7324;SDS011;3703;48.016;7.802;2023-01-28T14:05:29;4.57;;;3.37;;
7324;SDS011;3703;48.016;7.802;2023-01-28T14:08:47;4.47;;;3.40;;
7324;SDS011;3703;48.016;7.802;2023-01-28T14:15:40;6.47;;;4.47;;
7324;SDS011;3703;48.016;7.802;2023-01-28T14:18:43;7.07;;;4.93;;
7324;SDS011;3703;48.016;7.802;2023-01-28T14:21:33;7.60;;;4.13;;
7324;SDS011;3703;48.016;7.802;2023-01-28T14:24:21;4.20;;;2.93;;
7324;SDS011;3703;48.016;7.802;2023-01-28T14:27:11;5.13;;;3.93;;
7324;SDS011;3703;48.016;7.802;2023-01-28T14:30:07;6.20;;;4.40;;
7324;SDS011;3703;48.016;7.802;2023-01-28T14:33:06;7.30;;;4.00;;
7324;SDS011;3703;48.016;7.802;2023-01-28T14:35:56;5.70;;;4.07;;
7324;SDS011;3703;48.016;7.802;2023-01-28T14:38:44;6.40;;;4.43;;
7324;SDS011;3703;48.016;7.802;2023-01-28T14:41:32;4.07;;;3.20;;
7324;SDS011;3703;48.016;7.802;2023-01-28T14:44:24;5.27;;;3.17;;
7324;SDS011;3703;48.016;7.802;2023-01-28T14:47:21;4.97;;;3.70;;
7324;SDS011;3703;48.016;7.802;2023-01-28T14:50:28;22.93;;;8.00;;
7324;SDS011;3703;48.016;7.802;2023-01-28T14:53:33;5.27;;;3.53;;
7324;SDS011;3703;48.016;7.802;2023-01-28T14:56:59;8.23;;;5.40;;
7324;SDS011;3703;48.016;7.802;2023-01-28T15:00:00;5.40;;;4.00;;
7324;SDS011;3703;48.016;7.802;2023-01-28T15:02:54;6.93;;;3.93;;
7324;SDS011;3703;48.016;7.802;2023-01-28T15:05:41;5.33;;;3.67;;
7324;SDS011;3703;48.016;7.802;2023-01-28T15:08:29;4.33;;;3.43;;
7324;SDS011;3703;48.016;7.802;2023-01-28T15:11:18;5.27;;;3.60;;
7324;SDS011;3703;48.016;7.802;2023-01-28T15:14:11;4.70;;;3.40;;
7324;SDS011;3703;48.016;7.802;2023-01-28T15:17:04;5.60;;;3.27;;
7324;SDS011;3703;48.016;7.802;2023-01-28T15:19:54;6.30;;;4.10;;
7324;SDS011;3703;48.016;7.802;2023-01-28T15:22:43;4.70;;;3.10;;
7324;SDS011;3703;48.016;7.802;2023-01-28T15:25:31;4.20;;;3.13;;
7324;SDS011;3703;48.016;7.802;2023-01-28T15:28:19;4.60;;;3.50;;
7324;SDS011;3703;48.016;7.802;2023-01-28T15:31:19;5.53;;;3.50;;
7324;SDS011;3703;48.016;7.802;2023-01-28T15:34:10;5.43;;;3.33;;
7324;SDS011;3703;48.016;7.802;2023-01-28T15:37:02;6.60;;;4.37;;
7324;SDS011;3703;48.016;7.802;2023-01-28T15:39:58;6.43;;;4.30;;
7324;SDS011;3703;48.016;7.802;2023-01-28T15:42:50;4.97;;;4.03;;
7324;SDS011;3703;48.016;7.802;2023-01-28T15:45:43;8.83;;;4.77;;
7324;SDS011;3703;48.016;7.802;2023-01-28T15:48:33;6.77;;;4.67;;
7324;SDS011;3703;48.016;7.802;2023-01-28T15:51:22;5.83;;;4.20;;
7324;SDS011;3703;48.016;7.802;2023-01-28T15:54:13;7.57;;;4.77;;
7324;SDS011;3703;48.016;7.802;2023-01-28T15:57:07;9.93;;;5.63;;
7324;SDS011;3703;48.016;7.802;2023-01-28T16:00:08;7.20;;;5.73;;
7324;SDS011;3703;48.016;7.802;2023-01-28T16:03:05;6.57;;;3.97;;
7324;SDS011;3703;48.016;7.802;2023-01-28T16:05:56;6.80;;;4.73;;
7324;SDS011;3703;48.016;7.802;2023-01-28T16:08:50;6.60;;;4.33;;
7324;SDS011;3703;48.016;7.802;2023-01-28T16:11:41;6.97;;;4.80;;
7324;SDS011;3703;48.016;7.802;2023-01-28T16:14:30;7.83;;;4.60;;
7324;SDS011;3703;48.016;7.802;2023-01-28T16:17:26;10.33;;;5.97;;
7324;SDS011;3703;48.016;7.802;2023-01-28T16:20:20;11.20;;;6.93;;
7324;SDS011;3703;48.016;7.802;2023-01-28T16:23:12;8.13;;;5.77;;
7324;SDS011;3703;48.016;7.802;2023-01-28T16:26:19;12.70;;;7.87;;
7324;SDS011;3703;48.016;7.802;2023-01-28T16:29:12;14.37;;;8.10;;
7324;SDS011;3703;48.016;7.802;2023-01-28T16:32:01;11.23;;;7.67;;
7324;SDS011;3703;48.016;7.802;2023-01-28T16:34:49;14.20;;;8.20;;
7324;SDS011;3703;48.016;7.802;2023-01-28T16:37:36;10.83;;;7.40;;
7324;SDS011;3703;48.016;7.802;2023-01-28T16:40:24;12.97;;;7.43;;
7324;SDS011;3703;48.016;7.802;2023-01-28T16:43:12;14.60;;;8.67;;
7324;SDS011;3703;48.016;7.802;2023-01-28T16:46:02;17.13;;;8.70;;
7324;SDS011;3703;48.016;7.802;2023-01-28T16:48:50;11.17;;;7.50;;
7324;SDS011;3703;48.016;7.802;2023-01-28T16:51:39;11.60;;;8.03;;
7324;SDS011;3703;48.016;7.802;2023-01-28T16:54:28;14.20;;;8.03;;
7324;SDS011;3703;48.016;7.802;2023-01-28T16:57:17;13.93;;;8.07;;
7324;SDS011;3703;48.016;7.802;2023-01-28T17:00:07;14.30;;;8.23;;
7324;SDS011;3703;48.016;7.802;2023-01-28T17:03:05;11.77;;;6.70;;
7324;SDS011;3703;48.016;7.802;2023-01-28T17:05:52;10.10;;;6.57;;
7324;SDS011;3703;48.016;7.802;2023-01-28T17:08:40;11.07;;;7.47;;
7324;SDS011;3703;48.016;7.802;2023-01-28T17:11:27;10.50;;;6.10;;
7324;SDS011;3703;48.016;7.802;2023-01-28T17:14:15;11.70;;;7.13;;
7324;SDS011;3703;48.016;7.802;2023-01-28T17:17:02;11.07;;;6.40;;
7324;SDS011;3703;48.016;7.802;2023-01-28T17:19:51;10.63;;;6.67;;
7324;SDS011;3703;48.016;7.802;2023-01-28T17:22:39;10.83;;;6.73;;
7324;SDS011;3703;48.016;7.802;2023-01-28T17:25:26;13.10;;;6.93;;
7324;SDS011;3703;48.016;7.802;2023-01-28T17:28:14;14.43;;;7.77;;
7324;SDS011;3703;48.016;7.802;2023-01-28T17:31:03;12.67;;;7.80;;
7324;SDS011;3703;48.016;7.802;2023-01-28T17:33:52;11.03;;;7.03;;
7324;SDS011;3703;48.016;7.802;2023-01-28T17:36:42;15.47;;;8.67;;
7324;SDS011;3703;48.016;7.802;2023-01-28T17:39:30;11.73;;;7.27;;
7324;SDS011;3703;48.016;7.802;2023-01-28T17:42:17;10.40;;;6.43;;
7324;SDS011;3703;48.016;7.802;2023-01-28T17:45:05;9.77;;;7.03;;
7324;SDS011;3703;48.016;7.802;2023-01-28T17:47:53;13.20;;;7.70;;
7324;SDS011;3703;48.016;7.802;2023-01-28T17:50:41;12.93;;;7.50;;
7324;SDS011;3703;48.016;7.802;2023-01-28T17:53:30;11.57;;;7.57;;
7324;SDS011;3703;48.016;7.802;2023-01-28T17:56:18;15.60;;;9.07;;